createdAt,value
2023-04-23T00:00:03.433Z,26.89
2023-04-23T00:01:03.493Z,26.89
2023-04-23T00:02:03.548Z,26.89
2023-04-23T00:03:03.791Z,26.90
2023-04-23T00:04:03.724Z,26.89
2023-04-23T00:05:03.827Z,26.89
2023-04-23T00:06:03.757Z,26.89
2023-04-23T00:07:03.816Z,26.86
2023-04-23T00:08:03.860Z,26.88
2023-04-23T00:09:03.930Z,26.89
2023-04-23T00:10:03.972Z,26.88
2023-04-23T00:11:04.028Z,26.89
2023-04-23T00:12:04.097Z,26.88
2023-04-23T00:13:04.152Z,26.88
2023-04-23T00:14:04.219Z,26.86
2023-04-23T00:15:04.274Z,26.88
2023-04-23T00:16:04.423Z,26.86
2023-04-23T00:17:04.372Z,26.88
2023-04-23T00:18:04.448Z,26.88
2023-04-23T00:19:04.505Z,26.89
2023-04-23T00:20:04.547Z,26.86
2023-04-23T00:21:04.601Z,26.88
2023-04-23T00:22:04.645Z,26.85
2023-04-23T00:23:04.693Z,26.88
2023-04-23T00:24:04.791Z,26.86
2023-04-23T00:25:04.824Z,26.86
2023-04-23T00:26:04.878Z,26.85
2023-04-23T00:27:04.923Z,26.88
2023-04-23T00:28:04.977Z,26.83
2023-04-23T00:29:05.020Z,26.85
2023-04-23T00:30:05.075Z,26.85
2023-04-23T00:31:05.151Z,26.83
2023-04-23T00:32:05.234Z,26.86
2023-04-23T00:33:05.252Z,26.86
2023-04-23T00:34:05.317Z,26.86
2023-04-23T00:35:05.351Z,26.85
2023-04-23T00:36:05.426Z,26.89
2023-04-23T00:37:05.485Z,26.85
2023-04-23T00:38:05.548Z,26.85
2023-04-23T00:39:05.604Z,26.83
2023-04-23T00:40:05.668Z,26.82
2023-04-23T00:41:05.721Z,26.83
2023-04-23T00:42:05.779Z,26.83
2023-04-23T00:43:05.841Z,26.81
2023-04-23T00:44:05.915Z,26.81
2023-04-23T00:45:05.971Z,26.83
2023-04-23T00:46:06.108Z,26.82
2023-04-23T00:47:06.107Z,26.82
2023-04-23T00:48:06.198Z,26.82
2023-04-23T00:49:06.192Z,26.82
2023-04-23T00:50:06.261Z,26.79
2023-04-23T00:51:06.304Z,26.83
2023-04-23T00:52:06.371Z,26.82
2023-04-23T00:53:06.420Z,26.83
2023-04-23T00:54:06.513Z,26.82
2023-04-23T00:55:06.552Z,26.81
2023-04-23T00:56:06.607Z,26.82
2023-04-23T00:57:06.668Z,26.81
2023-04-23T00:58:06.877Z,26.81
2023-04-23T00:59:06.784Z,26.82
2023-04-23T01:00:06.833Z,26.81
2023-04-23T01:01:06.919Z,26.79
2023-04-23T01:02:06.996Z,26.81
2023-04-23T01:03:07.156Z,26.83
2023-04-23T01:04:07.229Z,26.79
2023-04-23T01:05:07.354Z,26.81
2023-04-23T01:06:07.178Z,26.81
2023-04-23T01:07:07.249Z,26.82
2023-04-23T01:08:07.312Z,26.79
2023-04-23T01:09:07.362Z,26.82
2023-04-23T01:10:07.424Z,26.81
2023-04-23T01:11:07.470Z,26.81
2023-04-23T01:12:07.538Z,26.81
2023-04-23T01:13:07.599Z,26.82
2023-04-23T01:14:07.675Z,26.79
2023-04-23T01:15:07.765Z,26.82
2023-04-23T01:16:07.787Z,26.78
2023-04-23T01:17:07.871Z,26.79
2023-04-23T01:18:07.929Z,26.82
2023-04-23T01:19:07.975Z,26.81
2023-04-23T01:20:08.034Z,26.78
2023-04-23T01:21:08.076Z,26.78
2023-04-23T01:22:08.139Z,26.81
2023-04-23T01:23:08.221Z,26.81
2023-04-23T01:24:08.268Z,26.79
2023-04-23T01:25:08.373Z,26.82
2023-04-23T01:26:08.404Z,26.81
2023-04-23T01:27:08.454Z,26.79
2023-04-23T01:28:08.546Z,26.78
2023-04-23T01:29:08.578Z,26.77
2023-04-23T01:30:08.644Z,26.78
2023-04-23T01:31:08.750Z,26.78
2023-04-23T01:32:08.791Z,26.78
2023-04-23T01:33:08.850Z,26.78
2023-04-23T01:34:08.904Z,26.78
2023-04-23T01:35:08.963Z,26.75
2023-04-23T01:36:09.040Z,26.75
2023-04-23T01:37:09.101Z,26.79
2023-04-23T01:38:09.159Z,26.77
2023-04-23T01:39:09.214Z,26.77
2023-04-23T01:40:09.293Z,26.77
2023-04-23T01:41:09.491Z,26.78
2023-04-23T01:42:09.413Z,26.78
2023-04-23T01:43:09.509Z,26.78
2023-04-23T01:44:09.537Z,26.77
2023-04-23T01:45:09.603Z,26.74
2023-04-23T01:46:09.699Z,26.77
2023-04-23T01:47:09.713Z,26.77
2023-04-23T01:48:09.780Z,26.75
2023-04-23T01:49:09.824Z,26.78
2023-04-23T01:50:09.908Z,26.77
2023-04-23T01:51:09.947Z,26.77
2023-04-23T01:52:10.011Z,26.77
2023-04-23T01:53:10.083Z,26.75
2023-04-23T01:54:10.144Z,26.75
2023-04-23T01:55:10.196Z,26.75
2023-04-23T01:56:10.259Z,26.75
2023-04-23T01:57:10.331Z,26.77
2023-04-23T01:58:10.393Z,26.75
2023-04-23T01:59:10.468Z,26.77
2023-04-23T02:00:10.510Z,26.75
2023-04-23T02:01:10.620Z,26.72
2023-04-23T02:02:10.676Z,26.77
2023-04-23T02:03:10.881Z,26.77
2023-04-23T02:04:10.848Z,26.74
2023-04-23T02:05:10.832Z,26.74
2023-04-23T02:06:10.880Z,26.74
2023-04-23T02:07:10.942Z,26.75
2023-04-23T02:08:11.023Z,26.75
2023-04-23T02:09:11.065Z,26.74
2023-04-23T02:10:11.144Z,26.72
2023-04-23T02:11:11.190Z,26.72
2023-04-23T02:12:11.251Z,26.75
2023-04-23T02:13:11.335Z,26.75
2023-04-23T02:14:11.397Z,26.74
2023-04-23T02:15:11.464Z,26.74
2023-04-23T02:16:11.559Z,26.74
2023-04-23T02:17:11.566Z,26.77
2023-04-23T02:18:11.655Z,26.75
2023-04-23T02:19:12.625Z,26.72
2023-04-23T02:20:11.779Z,26.72
2023-04-23T02:21:11.845Z,26.72
2023-04-23T02:22:11.903Z,26.75
2023-04-23T02:23:11.939Z,26.74
2023-04-23T02:24:12.064Z,26.72
2023-04-23T02:25:12.062Z,26.72
2023-04-23T02:26:12.144Z,26.71
2023-04-23T02:27:12.203Z,26.72
2023-04-23T02:28:12.251Z,26.72
2023-04-23T02:29:12.308Z,26.74
2023-04-23T02:30:12.380Z,26.72
2023-04-23T02:31:12.450Z,26.74
2023-04-23T02:32:12.488Z,26.75
2023-04-23T02:33:12.569Z,26.72
2023-04-23T02:34:12.629Z,26.74
2023-04-23T02:35:12.720Z,26.74
2023-04-23T02:36:12.746Z,26.74
2023-04-23T02:37:12.795Z,26.72
2023-04-23T02:38:12.868Z,26.71
2023-04-23T02:39:12.923Z,26.72
2023-04-23T02:40:12.970Z,26.71
2023-04-23T02:41:13.009Z,26.72
2023-04-23T02:42:13.067Z,26.75
2023-04-23T02:43:13.132Z,26.71
2023-04-23T02:44:13.148Z,26.71
2023-04-23T02:45:13.227Z,26.71
2023-04-23T02:46:13.287Z,26.72
2023-04-23T02:47:13.299Z,26.71
2023-04-23T02:48:13.358Z,26.71
2023-04-23T02:49:13.405Z,26.72
2023-04-23T02:50:13.447Z,26.72
2023-04-23T02:51:13.497Z,26.71
2023-04-23T02:52:13.543Z,26.69
2023-04-23T02:53:13.604Z,26.71
2023-04-23T02:54:13.654Z,26.72
2023-04-23T02:55:13.716Z,26.71
2023-04-23T02:56:13.765Z,26.69
2023-04-23T02:57:13.829Z,26.71
2023-04-23T02:58:13.901Z,26.69
2023-04-23T02:59:13.928Z,26.68
2023-04-23T03:00:13.988Z,26.68
2023-04-23T03:01:14.075Z,26.71
2023-04-23T03:02:14.173Z,26.71
2023-04-23T03:03:14.307Z,26.71
2023-04-23T03:04:14.231Z,26.69
2023-04-23T03:05:14.242Z,26.71
2023-04-23T03:06:14.301Z,26.71
2023-04-23T03:07:14.339Z,26.71
2023-04-23T03:08:14.422Z,26.69
2023-04-23T03:09:14.448Z,26.71
2023-04-23T03:10:14.547Z,26.72
2023-04-23T03:11:14.595Z,26.68
2023-04-23T03:12:14.647Z,26.71
2023-04-23T03:13:14.734Z,26.69
2023-04-23T03:14:14.776Z,26.69
2023-04-23T03:15:14.864Z,26.72
2023-04-23T03:16:14.970Z,26.69
2023-04-23T03:17:14.980Z,26.69
2023-04-23T03:18:15.034Z,26.71
2023-04-23T03:19:15.108Z,26.69
2023-04-23T03:20:15.168Z,26.69
2023-04-23T03:21:15.230Z,26.71
2023-04-23T03:22:15.280Z,26.71
2023-04-23T03:23:15.411Z,26.69
2023-04-23T03:24:15.431Z,26.71
2023-04-23T03:25:15.478Z,26.68
2023-04-23T03:26:15.526Z,26.69
2023-04-23T03:27:15.612Z,26.69
2023-04-23T03:28:15.676Z,26.72
2023-04-23T03:29:15.726Z,26.72
2023-04-23T03:30:15.771Z,26.71
2023-04-23T03:31:15.929Z,26.71
2023-04-23T03:32:15.915Z,26.71
2023-04-23T03:33:15.983Z,26.71
2023-04-23T03:34:16.049Z,26.69
2023-04-23T03:35:16.106Z,26.74
2023-04-23T03:36:16.170Z,26.69
2023-04-23T03:37:16.205Z,26.72
2023-04-23T03:38:16.278Z,26.69
2023-04-23T03:39:16.321Z,26.69
2023-04-23T03:40:16.400Z,26.69
2023-04-23T03:41:16.443Z,26.72
2023-04-23T03:42:16.523Z,26.71
2023-04-23T03:43:16.558Z,26.68
2023-04-23T03:44:16.625Z,26.69
2023-04-23T03:45:16.685Z,26.71
2023-04-23T03:46:16.808Z,26.69
2023-04-23T03:47:16.806Z,26.71
2023-04-23T03:48:16.863Z,26.71
2023-04-23T03:49:16.938Z,26.71
2023-04-23T03:50:16.961Z,26.71
2023-04-23T03:51:17.029Z,26.72
2023-04-23T03:52:17.075Z,26.72
2023-04-23T03:53:17.164Z,26.69
2023-04-23T03:54:17.221Z,26.71
2023-04-23T03:55:17.265Z,26.71
2023-04-23T03:56:17.353Z,26.69
2023-04-23T03:57:17.388Z,26.69
2023-04-23T03:58:17.451Z,26.71
2023-04-23T03:59:17.529Z,26.71
2023-04-23T04:00:17.589Z,26.69
2023-04-23T04:01:17.645Z,26.72
2023-04-23T04:02:17.753Z,26.72
2023-04-23T04:03:17.934Z,26.69
2023-04-23T04:04:18.044Z,26.71
2023-04-23T04:05:18.140Z,26.72
2023-04-23T04:06:17.926Z,26.72
2023-04-23T04:07:17.999Z,26.71
2023-04-23T04:08:18.028Z,26.72
2023-04-23T04:09:18.096Z,26.71
2023-04-23T04:10:18.158Z,26.71
2023-04-23T04:11:18.225Z,26.71
2023-04-23T04:12:18.266Z,26.71
2023-04-23T04:13:18.323Z,26.69
2023-04-23T04:14:18.382Z,26.71
2023-04-23T04:15:18.459Z,26.71
2023-04-23T04:16:18.522Z,26.71
2023-04-23T04:17:18.577Z,26.69
2023-04-23T04:18:18.633Z,26.71
2023-04-23T04:19:18.706Z,26.72
2023-04-23T04:20:18.886Z,26.71
2023-04-23T04:21:18.838Z,26.71
2023-04-23T04:22:18.930Z,26.72
2023-04-23T04:23:18.963Z,26.71
2023-04-23T04:24:19.026Z,26.71
2023-04-23T04:25:19.095Z,26.71
2023-04-23T04:26:19.164Z,26.72
2023-04-23T04:27:19.206Z,26.71
2023-04-23T04:28:19.270Z,26.71
2023-04-23T04:29:19.333Z,26.68
2023-04-23T04:30:19.395Z,26.71
2023-04-23T04:31:19.470Z,26.71
2023-04-23T04:32:19.528Z,26.71
2023-04-23T04:33:19.586Z,26.71
2023-04-23T04:34:19.641Z,26.71
2023-04-23T04:35:19.682Z,26.71
2023-04-23T04:36:19.750Z,26.71
2023-04-23T04:37:19.818Z,26.72
2023-04-23T04:38:19.911Z,26.71
2023-04-23T04:39:19.952Z,26.69
2023-04-23T04:40:19.992Z,26.69
2023-04-23T04:41:20.045Z,26.72
2023-04-23T04:42:20.112Z,26.71
2023-04-23T04:43:20.179Z,26.69
2023-04-23T04:44:20.234Z,26.71
2023-04-23T04:45:20.285Z,26.71
2023-04-23T04:46:20.399Z,26.72
2023-04-23T04:47:20.478Z,26.69
2023-04-23T04:48:20.509Z,26.71
2023-04-23T04:49:20.539Z,26.71
2023-04-23T04:50:20.582Z,26.72
2023-04-23T04:51:20.673Z,26.71
2023-04-23T04:52:20.701Z,26.71
2023-04-23T04:53:20.764Z,26.74
2023-04-23T04:54:20.815Z,26.71
2023-04-23T04:55:20.894Z,26.72
2023-04-23T04:56:20.935Z,26.72
2023-04-23T04:57:21.031Z,26.72
2023-04-23T04:58:21.080Z,26.75
2023-04-23T04:59:21.147Z,26.72
2023-04-23T05:00:21.214Z,26.72
2023-04-23T05:01:21.306Z,26.74
2023-04-23T05:02:21.630Z,26.72
2023-04-23T05:03:21.577Z,26.71
2023-04-23T05:04:21.496Z,26.72
2023-04-23T05:05:21.491Z,26.74
2023-04-23T05:06:21.585Z,26.74
2023-04-23T05:07:21.638Z,26.72
2023-04-23T05:08:21.690Z,26.72
2023-04-23T05:09:21.765Z,26.74
2023-04-23T05:10:21.850Z,26.75
2023-04-23T05:11:21.876Z,26.72
2023-04-23T05:12:21.952Z,26.72
2023-04-23T05:13:21.997Z,26.72
2023-04-23T05:14:22.059Z,26.74
2023-04-23T05:15:22.112Z,26.74
2023-04-23T05:16:22.210Z,26.74
2023-04-23T05:17:22.305Z,26.75
2023-04-23T05:18:22.316Z,26.75
2023-04-23T05:19:22.351Z,26.72
2023-04-23T05:20:22.407Z,26.72
2023-04-23T05:21:22.482Z,26.75
2023-04-23T05:22:22.553Z,26.75
2023-04-23T05:23:22.601Z,26.72
2023-04-23T05:24:22.679Z,26.75
2023-04-23T05:25:22.751Z,26.75
2023-04-23T05:26:22.773Z,26.75
2023-04-23T05:27:22.839Z,26.75
2023-04-23T05:28:22.905Z,26.77
2023-04-23T05:29:22.943Z,26.78
2023-04-23T05:30:23.033Z,26.75
2023-04-23T05:31:23.137Z,26.77
2023-04-23T05:32:23.222Z,26.77
2023-04-23T05:33:23.198Z,26.77
2023-04-23T05:34:23.280Z,26.77
2023-04-23T05:35:23.302Z,26.77
2023-04-23T05:36:23.408Z,26.78
2023-04-23T05:37:23.453Z,26.78
2023-04-23T05:38:23.518Z,26.78
2023-04-23T05:39:23.568Z,26.81
2023-04-23T05:40:23.643Z,26.77
2023-04-23T05:41:23.675Z,26.75
2023-04-23T05:42:23.757Z,26.77
2023-04-23T05:43:23.985Z,26.81
2023-04-23T05:44:23.879Z,26.78
2023-04-23T05:45:23.930Z,26.79
2023-04-23T05:46:24.054Z,26.78
2023-04-23T05:47:24.092Z,26.77
2023-04-23T05:48:24.139Z,26.79
2023-04-23T05:49:24.182Z,26.78
2023-04-23T05:50:24.228Z,26.79
2023-04-23T05:51:24.288Z,26.78
2023-04-23T05:52:24.366Z,26.79
2023-04-23T05:53:24.420Z,26.81
2023-04-23T05:54:24.492Z,26.81
2023-04-23T05:55:24.559Z,26.81
2023-04-23T05:56:24.632Z,26.81
2023-04-23T05:57:24.662Z,26.82
2023-04-23T05:58:24.752Z,26.82
2023-04-23T05:59:24.797Z,26.81
2023-04-23T06:00:24.839Z,26.82
2023-04-23T06:01:24.897Z,26.81
2023-04-23T06:02:25.302Z,26.83
2023-04-23T06:03:25.249Z,26.82
2023-04-23T06:04:25.213Z,26.82
2023-04-23T06:05:25.284Z,26.83
2023-04-23T06:06:25.204Z,26.83
2023-04-23T06:07:25.253Z,26.82
2023-04-23T06:08:25.445Z,26.82
2023-04-23T06:09:25.371Z,26.82
2023-04-23T06:10:25.446Z,26.83
2023-04-23T06:11:25.481Z,26.82
2023-04-23T06:12:25.536Z,26.82
2023-04-23T06:13:25.602Z,26.83
2023-04-23T06:14:25.676Z,26.83
2023-04-23T06:15:25.727Z,26.86
2023-04-23T06:16:25.942Z,26.83
2023-04-23T06:17:25.815Z,26.83
2023-04-23T06:18:25.876Z,26.83
2023-04-23T06:19:25.948Z,26.85
2023-04-23T06:20:26.018Z,26.85
2023-04-23T06:21:26.039Z,26.82
2023-04-23T06:22:26.094Z,26.88
2023-04-23T06:23:26.169Z,26.86
2023-04-23T06:24:26.219Z,26.88
2023-04-23T06:25:26.265Z,26.89
2023-04-23T06:26:26.329Z,26.85
2023-04-23T06:27:26.379Z,26.86
2023-04-23T06:28:26.457Z,26.89
2023-04-23T06:29:26.495Z,26.88
2023-04-23T06:30:26.565Z,26.90
2023-04-23T06:31:26.701Z,26.89
2023-04-23T06:32:26.677Z,26.88
2023-04-23T06:33:26.752Z,26.89
2023-04-23T06:34:26.803Z,26.89
2023-04-23T06:35:26.843Z,26.89
2023-04-23T06:36:26.896Z,26.92
2023-04-23T06:37:29.222Z,26.89
2023-04-23T06:38:26.969Z,26.90
2023-04-23T06:39:26.965Z,26.89
2023-04-23T06:40:26.999Z,26.92
2023-04-23T06:41:26.919Z,26.90
2023-04-23T06:42:26.907Z,26.92
2023-04-23T06:43:26.919Z,26.90
2023-04-23T06:44:26.940Z,26.93
2023-04-23T06:45:26.892Z,26.93
2023-04-23T06:46:26.920Z,26.95
2023-04-23T06:47:26.878Z,26.95
2023-04-23T06:48:26.887Z,26.95
2023-04-23T06:49:26.881Z,26.95
2023-04-23T06:50:26.911Z,26.98
2023-04-23T06:51:26.855Z,26.96
2023-04-23T06:52:26.868Z,26.98
2023-04-23T06:53:26.858Z,26.99
2023-04-23T06:54:26.849Z,26.98
2023-04-23T06:55:26.841Z,26.96
2023-04-23T06:56:26.813Z,26.99
2023-04-23T06:57:26.825Z,26.98
2023-04-23T06:58:26.852Z,27.00
2023-04-23T06:59:26.796Z,27.00
2023-04-23T07:00:26.886Z,27.02
2023-04-23T07:01:26.849Z,27.00
2023-04-23T07:02:26.880Z,27.02
2023-04-23T07:03:26.816Z,27.02
2023-04-23T07:04:26.843Z,27.00
2023-04-23T07:05:26.768Z,27.02
2023-04-23T07:06:26.782Z,27.03
2023-04-23T07:07:26.763Z,27.05
2023-04-23T07:08:26.790Z,27.07
2023-04-23T07:09:26.741Z,27.03
2023-04-23T07:10:26.757Z,27.06
2023-04-23T07:11:26.742Z,27.07
2023-04-23T07:12:26.806Z,27.09
2023-04-23T07:13:26.731Z,27.07
2023-04-23T07:14:26.707Z,27.07
2023-04-23T07:15:26.724Z,27.10
2023-04-23T07:16:26.788Z,27.13
2023-04-23T07:17:26.731Z,27.12
2023-04-23T07:18:26.694Z,27.12
2023-04-23T07:19:26.719Z,27.13
2023-04-23T07:20:26.790Z,27.13
2023-04-23T07:21:26.819Z,27.16
2023-04-23T07:22:27.783Z,27.16
2023-04-23T07:23:27.021Z,27.19
2023-04-23T07:24:27.030Z,27.19
2023-04-23T07:25:27.096Z,27.25
2023-04-23T07:26:27.122Z,27.23
2023-04-23T07:27:27.171Z,27.25
2023-04-23T07:28:27.207Z,27.26
2023-04-23T07:29:27.247Z,27.28
2023-04-23T07:30:27.297Z,27.30
2023-04-23T07:31:27.339Z,27.32
2023-04-23T07:32:27.400Z,27.34
2023-04-23T07:33:27.417Z,27.36
2023-04-23T07:34:27.433Z,27.41
2023-04-23T07:35:27.477Z,27.44
2023-04-23T07:36:27.495Z,27.47
2023-04-23T07:37:27.524Z,27.50
2023-04-23T07:38:27.554Z,27.54
2023-04-23T07:39:27.565Z,27.57
2023-04-23T07:40:27.729Z,27.58
2023-04-23T07:41:27.577Z,27.61
2023-04-23T07:42:27.640Z,27.67
2023-04-23T07:43:27.656Z,27.67
2023-04-23T07:44:27.651Z,27.71
2023-04-23T07:45:27.660Z,27.75
2023-04-23T07:46:27.694Z,27.77
2023-04-23T07:47:27.708Z,27.81
2023-04-23T07:48:27.689Z,27.83
2023-04-23T07:49:27.771Z,27.85
2023-04-23T07:50:27.835Z,27.90
2023-04-23T07:51:27.896Z,27.92
2023-04-23T07:52:27.944Z,27.95
2023-04-23T07:53:28.009Z,27.97
2023-04-23T07:54:28.053Z,27.99
2023-04-23T07:55:28.125Z,27.99
2023-04-23T07:56:28.182Z,28.02
2023-04-23T07:57:28.221Z,27.99
2023-04-23T07:58:28.313Z,28.04
2023-04-23T07:59:28.360Z,28.04
2023-04-23T08:00:28.438Z,28.07
2023-04-23T08:01:28.474Z,28.05
2023-04-23T08:02:28.714Z,28.07
2023-04-23T08:03:28.942Z,28.09
2023-04-23T08:04:28.959Z,28.08
2023-04-23T08:05:28.756Z,28.07
2023-04-23T08:06:28.755Z,28.08
2023-04-23T08:07:28.832Z,28.09
2023-04-23T08:08:28.887Z,28.08
2023-04-23T08:09:28.956Z,28.09
2023-04-23T08:10:28.989Z,28.11
2023-04-23T08:11:29.061Z,28.08
2023-04-23T08:12:29.123Z,28.11
2023-04-23T08:13:29.189Z,28.08
2023-04-23T08:14:29.249Z,28.11
2023-04-23T08:15:29.302Z,28.09
2023-04-23T08:16:30.383Z,28.11
2023-04-23T08:17:29.431Z,28.11
2023-04-23T08:18:29.480Z,28.12
2023-04-23T08:19:29.527Z,28.11
2023-04-23T08:20:29.603Z,28.12
2023-04-23T08:21:29.760Z,28.09
2023-04-23T08:22:29.733Z,28.12
2023-04-23T08:23:29.789Z,28.11
2023-04-23T08:24:29.838Z,28.11
2023-04-23T08:25:29.904Z,28.12
2023-04-23T08:26:29.963Z,28.13
2023-04-23T08:27:30.030Z,28.13
2023-04-23T08:28:30.087Z,28.13
2023-04-23T08:29:30.158Z,28.13
2023-04-23T08:30:30.253Z,28.12
2023-04-23T08:31:30.316Z,28.12
2023-04-23T08:32:30.355Z,28.15
2023-04-23T08:33:30.401Z,28.13
2023-04-23T08:34:30.437Z,28.12
2023-04-23T08:35:30.508Z,28.11
2023-04-23T08:36:30.560Z,28.13
2023-04-23T08:37:31.617Z,28.11
2023-04-23T08:38:30.675Z,28.13
2023-04-23T08:39:30.709Z,28.12
2023-04-23T08:40:30.773Z,28.13
2023-04-23T08:41:30.822Z,28.13
2023-04-23T08:42:30.882Z,28.13
2023-04-23T08:43:30.948Z,28.12
2023-04-23T08:44:30.999Z,28.13
2023-04-23T08:45:31.068Z,28.11
2023-04-23T08:46:31.130Z,28.11
2023-04-23T08:47:31.221Z,28.12
2023-04-23T08:48:31.239Z,28.12
2023-04-23T08:49:31.288Z,28.13
2023-04-23T08:50:31.342Z,28.12
2023-04-23T08:51:31.404Z,28.11
2023-04-23T08:52:31.459Z,28.12
2023-04-23T08:53:31.526Z,28.12
2023-04-23T08:54:31.576Z,28.11
2023-04-23T08:55:31.619Z,28.12
2023-04-23T08:56:31.669Z,28.12
2023-04-23T08:57:31.722Z,28.12
2023-04-23T08:58:31.787Z,28.12
2023-04-23T08:59:31.862Z,28.09
2023-04-23T09:00:31.996Z,28.11
2023-04-23T09:01:31.927Z,28.11
2023-04-23T09:02:32.102Z,28.13
2023-04-23T09:03:32.110Z,28.11
2023-04-23T09:04:32.120Z,28.12
2023-04-23T09:05:32.158Z,28.11
2023-04-23T09:06:32.192Z,28.09
2023-04-23T09:07:32.261Z,28.11
2023-04-23T09:08:32.305Z,28.12
2023-04-23T09:09:32.363Z,28.11
2023-04-23T09:10:32.448Z,28.12
2023-04-23T09:11:32.473Z,28.11
2023-04-23T09:12:32.553Z,28.12
2023-04-23T09:13:32.584Z,28.09
2023-04-23T09:14:32.657Z,28.09
2023-04-23T09:15:32.697Z,28.09
2023-04-23T09:16:32.789Z,28.09
2023-04-23T09:17:32.860Z,28.09
2023-04-23T09:18:32.872Z,28.11
2023-04-23T09:19:32.939Z,28.09
2023-04-23T09:20:33.005Z,28.09
2023-04-23T09:21:33.056Z,28.09
2023-04-23T09:22:33.120Z,28.11
2023-04-23T09:23:33.162Z,28.11
2023-04-23T09:24:33.229Z,28.09
2023-04-23T09:25:33.289Z,28.08
2023-04-23T09:26:33.343Z,28.09
2023-04-23T09:27:33.435Z,28.07
2023-04-23T09:28:33.462Z,28.08
2023-04-23T09:29:33.528Z,28.11
2023-04-23T09:30:33.572Z,28.09
2023-04-23T09:31:33.642Z,28.11
2023-04-23T09:32:33.700Z,28.09
2023-04-23T09:33:33.748Z,28.11
2023-04-23T09:34:33.813Z,28.08
2023-04-23T09:35:33.879Z,28.09
2023-04-23T09:36:33.920Z,28.08
2023-04-23T09:37:33.996Z,28.08
2023-04-23T09:38:34.043Z,28.09
2023-04-23T09:39:34.103Z,28.07
2023-04-23T09:40:34.178Z,28.09
2023-04-23T09:41:34.245Z,28.07
2023-04-23T09:42:34.281Z,28.09
2023-04-23T09:43:34.353Z,28.05
2023-04-23T09:44:34.420Z,28.08
2023-04-23T09:45:34.481Z,28.07
2023-04-23T09:46:34.522Z,28.09
2023-04-23T09:47:34.600Z,28.09
2023-04-23T09:48:34.634Z,28.07
2023-04-23T09:49:34.693Z,28.07
2023-04-23T09:50:34.778Z,28.07
2023-04-23T09:51:34.817Z,28.08
2023-04-23T09:52:34.872Z,28.08
2023-04-23T09:53:34.934Z,28.08
2023-04-23T09:54:35.049Z,28.07
2023-04-23T09:55:35.133Z,28.08
2023-04-23T09:56:35.125Z,28.07
2023-04-23T09:57:35.164Z,28.08
2023-04-23T09:58:35.228Z,28.08
2023-04-23T09:59:46.651Z,28.07
2023-04-23T10:00:36.301Z,28.09
2023-04-23T10:01:35.310Z,28.08
2023-04-23T10:02:35.378Z,28.08
2023-04-23T10:03:35.357Z,28.07
2023-04-23T10:04:35.484Z,28.09
2023-04-23T10:05:45.401Z,28.08
2023-04-23T10:06:42.320Z,28.08
2023-04-23T10:07:36.242Z,28.08
2023-04-23T10:08:35.242Z,28.08
2023-04-23T10:09:35.226Z,28.08
2023-04-23T10:10:40.613Z,28.09
2023-04-23T10:11:36.227Z,28.07
2023-04-23T10:12:52.111Z,28.08
2023-04-23T10:13:36.228Z,28.09
2023-04-23T10:14:35.203Z,28.08
2023-04-23T10:15:35.220Z,28.07
2023-04-23T10:16:46.031Z,28.05
2023-04-23T10:17:36.258Z,28.07
2023-04-23T10:18:35.202Z,28.07
2023-04-23T10:19:35.166Z,28.05
2023-04-23T10:20:35.174Z,28.04
2023-04-23T10:21:42.968Z,28.07
2023-04-23T10:22:36.148Z,28.07
2023-04-23T10:23:35.148Z,28.07
2023-04-23T10:24:35.146Z,28.07
2023-04-23T10:25:35.127Z,28.04
2023-04-23T10:26:35.122Z,28.04
2023-04-23T10:27:48.441Z,28.02
2023-04-23T10:28:36.112Z,28.01
2023-04-23T10:29:35.104Z,28.04
2023-04-23T10:30:35.080Z,28.02
2023-04-23T10:31:35.111Z,28.01
2023-04-23T10:32:35.091Z,28.04
2023-04-23T10:33:42.641Z,28.02
2023-04-23T10:34:36.082Z,28.02
2023-04-23T10:35:35.059Z,28.02
2023-04-23T10:36:35.062Z,28.01
2023-04-23T10:37:35.040Z,28.07
2023-04-23T10:38:35.229Z,28.05
2023-04-23T10:39:35.028Z,28.07
2023-04-23T10:40:35.013Z,28.08
2023-04-23T10:41:35.031Z,28.07
2023-04-23T10:42:35.053Z,28.05
2023-04-23T10:43:35.127Z,28.07
2023-04-23T10:44:56.578Z,28.05
2023-04-23T10:45:36.168Z,28.05
2023-04-23T10:46:37.906Z,28.07
2023-04-23T10:47:35.138Z,28.04
2023-04-23T10:48:35.167Z,28.07
2023-04-23T10:49:35.135Z,28.08
2023-04-23T10:50:35.112Z,28.02
2023-04-23T10:52:36.091Z,28.04
2023-04-23T10:53:35.111Z,28.04
2023-04-23T10:54:35.108Z,28.07
2023-04-23T10:55:35.084Z,28.04
2023-04-23T10:56:35.068Z,28.04
2023-04-23T10:57:35.073Z,28.05
2023-04-23T10:58:35.065Z,28.04
2023-04-23T10:59:35.104Z,28.02
2023-04-23T11:00:35.059Z,28.01
2023-04-23T11:01:35.165Z,28.04
2023-04-23T11:02:35.268Z,28.02
2023-04-23T11:03:35.350Z,28.05
2023-04-23T11:04:35.390Z,28.04
2023-04-23T11:05:35.394Z,28.02
2023-04-23T11:06:35.438Z,28.01
2023-04-23T11:07:35.512Z,28.02
2023-04-23T11:08:35.568Z,28.01
2023-04-23T11:09:35.646Z,28.01
2023-04-23T11:10:35.669Z,28.01
2023-04-23T11:11:35.723Z,28.01
2023-04-23T11:12:35.855Z,28.01
2023-04-23T11:13:35.856Z,28.01
2023-04-23T11:14:35.924Z,28.02
2023-04-23T11:15:35.973Z,27.99
2023-04-23T11:16:36.069Z,27.99
2023-04-23T11:17:36.152Z,27.99
2023-04-23T11:18:36.184Z,28.01
2023-04-23T11:19:36.246Z,27.99
2023-04-23T11:20:36.300Z,27.99
2023-04-23T11:21:36.374Z,28.01
2023-04-23T11:22:36.431Z,27.99
2023-04-23T11:23:36.511Z,27.98
2023-04-23T11:24:36.550Z,27.98
2023-04-23T11:25:36.627Z,28.01
2023-04-23T11:26:36.680Z,27.98
2023-04-23T11:27:36.750Z,27.99
2023-04-23T11:28:36.834Z,28.01
2023-04-23T11:29:36.884Z,27.99
2023-04-23T11:30:36.944Z,27.99
2023-04-23T11:31:39.307Z,27.98
2023-04-23T11:32:38.046Z,27.98
2023-04-23T11:33:36.993Z,28.01
2023-04-23T11:34:37.035Z,27.98
2023-04-23T11:35:37.011Z,27.99
2023-04-23T11:36:36.991Z,27.99
2023-04-23T11:37:36.965Z,27.98
2023-04-23T11:38:36.958Z,28.02
2023-04-23T11:39:36.963Z,27.95
2023-04-23T11:40:36.948Z,27.98
2023-04-23T11:41:37.019Z,27.97
2023-04-23T11:42:37.077Z,27.97
2023-04-23T11:43:37.126Z,27.97
2023-04-23T11:44:37.200Z,27.97
2023-04-23T11:45:37.343Z,27.94
2023-04-23T11:46:37.309Z,27.94
2023-04-23T11:47:37.385Z,27.92
2023-04-23T11:48:37.453Z,27.97
2023-04-23T11:49:37.674Z,27.94
2023-04-23T11:50:37.572Z,27.95
2023-04-23T11:51:37.653Z,27.94
2023-04-23T11:52:39.606Z,27.92
2023-04-23T11:53:37.759Z,27.95
2023-04-23T11:54:37.830Z,27.94
2023-04-23T11:55:37.869Z,27.94
2023-04-23T11:56:37.941Z,27.91
2023-04-23T11:57:38.010Z,27.95
2023-04-23T11:58:39.364Z,27.94
2023-04-23T11:59:38.156Z,27.95
2023-04-23T12:00:38.180Z,27.95
2023-04-23T12:01:38.247Z,27.94
2023-04-23T12:02:38.448Z,27.94
2023-04-23T12:03:38.486Z,27.94
2023-04-23T12:04:41.083Z,27.92
2023-04-23T12:05:38.439Z,27.92
2023-04-23T12:06:38.376Z,27.95
2023-04-23T12:07:38.380Z,27.92
2023-04-23T12:08:38.360Z,27.92
2023-04-23T12:09:38.365Z,27.92
2023-04-23T12:10:38.338Z,27.92
2023-04-23T12:11:38.334Z,27.94
2023-04-23T12:12:38.328Z,27.94
2023-04-23T12:13:38.319Z,27.94
2023-04-23T12:14:38.338Z,27.91
2023-04-23T12:15:38.325Z,27.92
2023-04-23T12:16:38.361Z,27.92
2023-04-23T12:17:38.302Z,27.94
2023-04-23T12:18:38.310Z,27.92
2023-04-23T12:19:38.339Z,27.92
2023-04-23T12:20:38.285Z,27.91
2023-04-23T12:21:38.284Z,27.92
2023-04-23T12:22:38.280Z,27.92
2023-04-23T12:23:38.269Z,27.92
2023-04-23T12:24:38.264Z,27.91
2023-04-23T12:25:38.265Z,27.92
2023-04-23T12:26:39.790Z,27.94
2023-04-23T12:27:38.264Z,27.94
2023-04-23T12:28:38.252Z,27.91
2023-04-23T12:29:38.239Z,27.94
2023-04-23T12:30:38.225Z,27.92
2023-04-23T12:31:38.261Z,27.92
2023-04-23T12:32:38.265Z,27.90
2023-04-23T12:33:38.210Z,27.92
2023-04-23T12:34:38.206Z,27.90
2023-04-23T12:35:38.206Z,27.91
2023-04-23T12:36:38.213Z,27.91
2023-04-23T12:37:38.192Z,27.92
2023-04-23T12:38:38.172Z,27.92
2023-04-23T12:39:38.184Z,27.90
2023-04-23T12:40:38.187Z,27.91
2023-04-23T12:41:38.226Z,27.92
2023-04-23T12:42:38.308Z,27.91
2023-04-23T12:43:38.374Z,27.92
2023-04-23T12:44:38.418Z,27.91
2023-04-23T12:45:38.474Z,27.92
2023-04-23T12:46:38.577Z,27.95
2023-04-23T12:47:38.728Z,27.92
2023-04-23T12:48:38.664Z,27.92
2023-04-23T12:49:38.741Z,27.92
2023-04-23T12:50:38.779Z,27.92
2023-04-23T12:51:38.832Z,27.94
2023-04-23T12:52:38.905Z,27.94
2023-04-23T12:53:38.969Z,27.94